sensor_id;sensor_type;location;lat;lon;timestamp;pressure;altitude;pressure_sealevel;temperature;humidity
67545;BME280;54380;47.770;11.150;2023-02-22T00:01:16;94725.78;;;5.10;59.27
67545;BME280;54380;47.770;11.150;2023-02-22T00:04:05;94721.16;;;5.12;59.58
67545;BME280;54380;47.770;11.150;2023-02-22T00:06:32;94718.28;;;5.13;59.79
67545;BME280;54380;47.770;11.150;2023-02-22T00:08:59;94715.47;;;5.15;59.96
67545;BME280;54380;47.770;11.150;2023-02-22T00:11:28;94715.25;;;5.16;60.24
67545;BME280;54380;47.770;11.150;2023-02-22T00:13:56;94719.47;;;5.17;59.45
67545;BME280;54380;47.770;11.150;2023-02-22T00:16:24;94714.03;;;5.19;59.52
67545;BME280;54380;47.770;11.150;2023-02-22T00:18:52;94712.78;;;5.21;58.63
67545;BME280;54380;47.770;11.150;2023-02-22T00:21:21;94712.19;;;5.19;58.93
67545;BME280;54380;47.770;11.150;2023-02-22T00:23:48;94712.41;;;5.18;59.30
67545;BME280;54380;47.770;11.150;2023-02-22T00:26:17;94706.03;;;5.14;58.97
67545;BME280;54380;47.770;11.150;2023-02-22T00:28:46;94709.06;;;5.11;58.74
67545;BME280;54380;47.770;11.150;2023-02-22T00:31:12;94715.31;;;5.10;58.67
67545;BME280;54380;47.770;11.150;2023-02-22T00:33:41;94706.09;;;5.07;58.81
67545;BME280;54380;47.770;11.150;2023-02-22T00:36:10;94709.94;;;5.04;59.98
67545;BME280;54380;47.770;11.150;2023-02-22T00:38:39;94705.38;;;5.00;58.87
67545;BME280;54380;47.770;11.150;2023-02-22T00:41:07;94705.97;;;5.02;57.50
67545;BME280;54380;47.770;11.150;2023-02-22T00:43:34;94701.63;;;4.96;57.43
67545;BME280;54380;47.770;11.150;2023-02-22T00:46:01;94702.25;;;4.91;58.77
67545;BME280;54380;47.770;11.150;2023-02-22T00:48:28;94701.91;;;4.88;58.99
67545;BME280;54380;47.770;11.150;2023-02-22T00:50:55;94701.91;;;4.88;59.17
67545;BME280;54380;47.770;11.150;2023-02-22T00:53:23;94704.53;;;4.88;59.15
67545;BME280;54380;47.770;11.150;2023-02-22T00:55:52;94706.91;;;4.89;58.76
67545;BME280;54380;47.770;11.150;2023-02-22T00:58:20;94700.88;;;4.89;58.18
67545;BME280;54380;47.770;11.150;2023-02-22T01:00:47;94703.72;;;4.87;56.81
67545;BME280;54380;47.770;11.150;2023-02-22T01:03:18;94709.22;;;4.79;57.31
67545;BME280;54380;47.770;11.150;2023-02-22T01:05:46;94708.09;;;4.75;59.02
67545;BME280;54380;47.770;11.150;2023-02-22T01:08:15;94712.72;;;4.73;58.17
67545;BME280;54380;47.770;11.150;2023-02-22T01:10:42;94708.28;;;4.73;58.08
67545;BME280;54380;47.770;11.150;2023-02-22T01:13:11;94711.56;;;4.69;58.82
67545;BME280;54380;47.770;11.150;2023-02-22T01:15:40;94702.34;;;4.66;59.21
67545;BME280;54380;47.770;11.150;2023-02-22T01:18:08;94700.16;;;4.63;59.28
67545;BME280;54380;47.770;11.150;2023-02-22T01:20:35;94698.34;;;4.64;59.50
67545;BME280;54380;47.770;11.150;2023-02-22T01:23:04;94698.13;;;4.65;59.08
67545;BME280;54380;47.770;11.150;2023-02-22T01:25:33;94690.28;;;4.65;58.50
67545;BME280;54380;47.770;11.150;2023-02-22T01:28:03;94687.06;;;4.63;58.06
67545;BME280;54380;47.770;11.150;2023-02-22T01:30:34;94691.75;;;4.61;57.37
67545;BME280;54380;47.770;11.150;2023-02-22T01:33:04;94691.81;;;4.54;57.55
67545;BME280;54380;47.770;11.150;2023-02-22T01:35:33;94687.22;;;4.50;58.23
67545;BME280;54380;47.770;11.150;2023-02-22T01:38:00;94684.84;;;4.48;57.65
67545;BME280;54380;47.770;11.150;2023-02-22T01:40:30;94688.88;;;4.44;58.32
67545;BME280;54380;47.770;11.150;2023-02-22T01:42:59;94688.72;;;4.39;58.93
67545;BME280;54380;47.770;11.150;2023-02-22T01:45:48;94686.34;;;4.37;58.98
67545;BME280;54380;47.770;11.150;2023-02-22T01:48:19;94673.28;;;4.37;58.75
67545;BME280;54380;47.770;11.150;2023-02-22T01:50:49;94670.88;;;4.36;59.36
67545;BME280;54380;47.770;11.150;2023-02-22T01:53:21;94671.66;;;4.36;59.44
67545;BME280;54380;47.770;11.150;2023-02-22T01:55:49;94667.22;;;4.37;59.55
67545;BME280;54380;47.770;11.150;2023-02-22T01:58:19;94662.59;;;4.39;59.00
67545;BME280;54380;47.770;11.150;2023-02-22T02:00:49;94663.25;;;4.34;58.93
67545;BME280;54380;47.770;11.150;2023-02-22T02:03:19;94654.03;;;4.32;59.32
67545;BME280;54380;47.770;11.150;2023-02-22T02:05:48;94651.44;;;4.32;59.69
67545;BME280;54380;47.770;11.150;2023-02-22T02:08:26;94642.34;;;4.34;59.41
67545;BME280;54380;47.770;11.150;2023-02-22T02:10:55;94645.78;;;4.35;59.81
67545;BME280;54380;47.770;11.150;2023-02-22T02:13:24;94651.00;;;4.35;59.76
67545;BME280;54380;47.770;11.150;2023-02-22T02:15:54;94650.41;;;4.33;59.48
67545;BME280;54380;47.770;11.150;2023-02-22T02:18:21;94649.63;;;4.32;59.67
67545;BME280;54380;47.770;11.150;2023-02-22T02:21:03;94652.44;;;4.31;59.49
67545;BME280;54380;47.770;11.150;2023-02-22T02:23:53;94654.03;;;4.32;59.42
67545;BME280;54380;47.770;11.150;2023-02-22T02:26:45;94658.25;;;4.33;59.52
67545;BME280;54380;47.770;11.150;2023-02-22T02:29:53;94672.34;;;4.32;59.92
67545;BME280;54380;47.770;11.150;2023-02-22T02:32:38;94676.59;;;4.26;59.77
67545;BME280;54380;47.770;11.150;2023-02-22T02:35:11;94678.41;;;4.26;59.19
67545;BME280;54380;47.770;11.150;2023-02-22T02:37:47;94673.63;;;4.23;58.70
67545;BME280;54380;47.770;11.150;2023-02-22T02:40:20;94663.16;;;4.23;57.89
67545;BME280;54380;47.770;11.150;2023-02-22T02:42:54;94664.03;;;4.16;57.83
67545;BME280;54380;47.770;11.150;2023-02-22T02:45:28;94672.16;;;4.08;58.13
67545;BME280;54380;47.770;11.150;2023-02-22T02:47:58;94672.56;;;4.05;58.47
67545;BME280;54380;47.770;11.150;2023-02-22T02:50:28;94668.78;;;4.01;57.80
67545;BME280;54380;47.770;11.150;2023-02-22T02:53:01;94660.56;;;3.97;57.86
67545;BME280;54380;47.770;11.150;2023-02-22T02:55:30;94654.63;;;3.90;57.62
67545;BME280;54380;47.770;11.150;2023-02-22T02:57:59;94656.69;;;3.82;55.95
67545;BME280;54380;47.770;11.150;2023-02-22T03:00:31;94658.59;;;3.68;55.54
67545;BME280;54380;47.770;11.150;2023-02-22T03:03:15;94659.50;;;3.55;55.63
67545;BME280;54380;47.770;11.150;2023-02-22T03:06:00;94654.75;;;3.45;57.03
67545;BME280;54380;47.770;11.150;2023-02-22T03:08:39;94647.19;;;3.37;56.46
67545;BME280;54380;47.770;11.150;2023-02-22T03:11:10;94640.41;;;3.29;57.18
67545;BME280;54380;47.770;11.150;2023-02-22T03:13:49;94654.28;;;3.23;58.27
67545;BME280;54380;47.770;11.150;2023-02-22T03:16:30;94658.50;;;3.24;59.60
67545;BME280;54380;47.770;11.150;2023-02-22T03:19:05;94658.06;;;3.27;59.52
67545;BME280;54380;47.770;11.150;2023-02-22T03:21:42;94654.63;;;3.34;58.70
67545;BME280;54380;47.770;11.150;2023-02-22T03:24:15;94655.41;;;3.34;57.58
67545;BME280;54380;47.770;11.150;2023-02-22T03:26:48;94656.06;;;3.29;57.59
67545;BME280;54380;47.770;11.150;2023-02-22T03:29:20;94655.66;;;3.26;57.31
67545;BME280;54380;47.770;11.150;2023-02-22T03:31:52;94655.50;;;3.21;57.50
67545;BME280;54380;47.770;11.150;2023-02-22T03:34:26;94658.16;;;3.14;56.53
67545;BME280;54380;47.770;11.150;2023-02-22T03:36:58;94648.16;;;3.04;57.48
67545;BME280;54380;47.770;11.150;2023-02-22T03:39:27;94649.63;;;3.00;56.96
67545;BME280;54380;47.770;11.150;2023-02-22T03:42:03;94653.03;;;2.94;57.05
67545;BME280;54380;47.770;11.150;2023-02-22T03:44:34;94647.06;;;2.87;57.25
67545;BME280;54380;47.770;11.150;2023-02-22T03:47:08;94648.06;;;2.86;58.04
67545;BME280;54380;47.770;11.150;2023-02-22T03:49:41;94640.25;;;2.86;58.54
67545;BME280;54380;47.770;11.150;2023-02-22T03:52:10;94642.06;;;2.85;58.61
67545;BME280;54380;47.770;11.150;2023-02-22T03:54:39;94642.84;;;2.86;57.57
67545;BME280;54380;47.770;11.150;2023-02-22T03:57:13;94642.88;;;2.79;56.94
67545;BME280;54380;47.770;11.150;2023-02-22T03:59:43;94632.69;;;2.71;56.91
67545;BME280;54380;47.770;11.150;2023-02-22T04:02:11;94627.31;;;2.66;57.45
67545;BME280;54380;47.770;11.150;2023-02-22T04:04:39;94632.13;;;2.62;58.03
67545;BME280;54380;47.770;11.150;2023-02-22T04:07:06;94631.91;;;2.64;58.48
67545;BME280;54380;47.770;11.150;2023-02-22T04:09:32;94631.69;;;2.66;58.69
67545;BME280;54380;47.770;11.150;2023-02-22T04:11:59;94632.31;;;2.68;58.04
67545;BME280;54380;47.770;11.150;2023-02-22T04:14:27;94634.53;;;2.64;57.13
67545;BME280;54380;47.770;11.150;2023-02-22T04:16:56;94635.13;;;2.59;57.11
67545;BME280;54380;47.770;11.150;2023-02-22T04:19:23;94632.94;;;2.56;57.44
67545;BME280;54380;47.770;11.150;2023-02-22T04:21:52;94634.16;;;2.54;57.64
67545;BME280;54380;47.770;11.150;2023-02-22T04:24:23;94629.16;;;2.52;57.66
67545;BME280;54380;47.770;11.150;2023-02-22T04:26:50;94630.16;;;2.51;58.48
67545;BME280;54380;47.770;11.150;2023-02-22T04:29:17;94626.75;;;2.51;58.32
67545;BME280;54380;47.770;11.150;2023-02-22T04:31:44;94624.94;;;2.51;57.71
67545;BME280;54380;47.770;11.150;2023-02-22T04:34:11;94623.75;;;2.47;58.16
67545;BME280;54380;47.770;11.150;2023-02-22T04:36:40;94616.16;;;2.46;58.12
67545;BME280;54380;47.770;11.150;2023-02-22T04:39:12;94615.56;;;2.44;58.56
67545;BME280;54380;47.770;11.150;2023-02-22T04:41:38;94617.16;;;2.45;58.24
67545;BME280;54380;47.770;11.150;2023-02-22T04:44:06;94609.75;;;2.41;57.24
67545;BME280;54380;47.770;11.150;2023-02-22T04:46:33;94613.38;;;2.34;57.19
67545;BME280;54380;47.770;11.150;2023-02-22T04:49:00;94615.22;;;2.27;57.33
67545;BME280;54380;47.770;11.150;2023-02-22T04:51:30;94606.81;;;2.25;57.25
67545;BME280;54380;47.770;11.150;2023-02-22T04:53:59;94611.41;;;2.23;57.57
67545;BME280;54380;47.770;11.150;2023-02-22T04:56:28;94602.41;;;2.18;57.40
67545;BME280;54380;47.770;11.150;2023-02-22T04:58:55;94602.81;;;2.15;58.69
67545;BME280;54380;47.770;11.150;2023-02-22T05:01:22;94606.25;;;2.16;58.53
67545;BME280;54380;47.770;11.150;2023-02-22T05:03:49;94596.41;;;2.18;58.39
67545;BME280;54380;47.770;11.150;2023-02-22T05:06:16;94594.81;;;2.17;57.58
67545;BME280;54380;47.770;11.150;2023-02-22T05:08:43;94594.63;;;2.12;57.69
67545;BME280;54380;47.770;11.150;2023-02-22T05:11:10;94594.84;;;2.04;56.94
67545;BME280;54380;47.770;11.150;2023-02-22T08:33:11;94581.78;;;8.89;51.58
67545;BME280;54380;47.770;11.150;2023-02-22T08:35:40;94568.84;;;9.09;51.50
67545;BME280;54380;47.770;11.150;2023-02-22T08:38:15;94566.69;;;9.33;51.04
67545;BME280;54380;47.770;11.150;2023-02-22T08:40:56;94570.84;;;9.56;51.19
67545;BME280;54380;47.770;11.150;2023-02-22T08:43:37;94570.00;;;9.83;50.65
67545;BME280;54380;47.770;11.150;2023-02-22T08:46:04;94565.66;;;10.04;50.24
67545;BME280;54380;47.770;11.150;2023-02-22T08:48:36;94561.28;;;10.20;49.58
67545;BME280;54380;47.770;11.150;2023-02-22T08:51:17;94562.47;;;10.44;49.83
67545;BME280;54380;47.770;11.150;2023-02-22T08:53:58;94560.75;;;10.70;49.52
67545;BME280;54380;47.770;11.150;2023-02-22T08:56:38;94557.66;;;10.99;49.07
67545;BME280;54380;47.770;11.150;2023-02-22T08:59:19;94560.63;;;11.23;48.48
67545;BME280;54380;47.770;11.150;2023-02-22T09:01:59;94546.69;;;11.53;48.43
67545;BME280;54380;47.770;11.150;2023-02-22T09:14:18;94547.47;;;12.90;44.49
67545;BME280;54380;47.770;11.150;2023-02-22T09:16:59;94547.31;;;13.16;43.86
67545;BME280;54380;47.770;11.150;2023-02-22T09:19:40;94539.97;;;13.47;44.28
67545;BME280;54380;47.770;11.150;2023-02-22T09:22:22;94539.41;;;13.84;43.74
67545;BME280;54380;47.770;11.150;2023-02-22T09:25:03;94533.94;;;14.05;42.10
67545;BME280;54380;47.770;11.150;2023-02-22T09:27:46;94528.31;;;14.12;41.72
67545;BME280;54380;47.770;11.150;2023-02-22T09:53:02;94506.28;;;15.92;35.93
67545;BME280;54380;47.770;11.150;2023-02-22T09:55:47;94504.66;;;15.77;34.09
67545;BME280;54380;47.770;11.150;2023-02-22T09:58:32;94502.38;;;15.70;34.68
67545;BME280;54380;47.770;11.150;2023-02-22T10:01:23;94500.97;;;15.92;34.99
67545;BME280;54380;47.770;11.150;2023-02-22T10:04:14;94501.06;;;16.00;34.65
67545;BME280;54380;47.770;11.150;2023-02-22T10:07:03;94507.00;;;16.11;33.37
67545;BME280;54380;47.770;11.150;2023-02-22T13:28:27;94349.25;;;16.92;34.75
67545;BME280;54380;47.770;11.150;2023-02-22T13:31:33;94354.53;;;17.06;34.42
67545;BME280;54380;47.770;11.150;2023-02-22T13:35:10;94351.94;;;16.92;34.77
67545;BME280;54380;47.770;11.150;2023-02-22T13:38:33;94345.31;;;16.89;34.23
67545;BME280;54380;47.770;11.150;2023-02-22T13:41:58;94341.59;;;16.91;34.41
